»·PEaware :: N582WD KBUR-KSNA

N582WD :: KBUR-KSNA

FLIGHT INFORMATION

Flight Status: Arrived
Operator: Privately registered:
United States
More flights under this callsign
Pilot: Kaleb W. (11686)
Aircraft: ECLIPSE 500
(EA50)
More flights by this aircraft type
Origin: KBUR Bob Hope-Burbank
United States
Destination: KSNA John Wayne-Orange Co
United States
More flights between these airports :: More routes between these airports
Route: +VNY3 TWINE V518 KIMMO V459 SLI
File this flight plan on PilotEdge
Remarks: RMK / SIMBRIEF
Altitude:
(Current/Filed)
9,000ft
Speed:
(Current/Filed)
292kts
Departed: 08-Nov-19 06:52 PM
Arrived: 08-Nov-19 07:24 PM
Distance/Time
Traveled:
40nm/0:32
Distance/Time
To Go:
Arrived

Flight Plot

Page will automatically refresh every two minutes.


Map Options




Map Legend


Flown Route
Filed Route
Departure Airport
Arrival Airport
Navaid (VOR, NDB)
Fix

Horizontal Profiles

Position Reports

Time Latitude Longitude Heading Altitude Ground
Speed
08-Nov-19 18:32 34.200215 -118.358844 258 720ft 0kts
08-Nov-19 18:33 34.200215 -118.358844 258 720ft 0kts
08-Nov-19 18:34 34.200215 -118.358844 258 720ft 0kts
08-Nov-19 18:35 34.200215 -118.358844 258 720ft 0kts
08-Nov-19 18:36 34.200215 -118.358844 258 720ft 0kts
08-Nov-19 18:37 34.200215 -118.358844 258 720ft 0kts
08-Nov-19 18:38 34.200215 -118.358844 258 720ft 0kts
08-Nov-19 18:39 34.200215 -118.358844 258 720ft 0kts
08-Nov-19 18:40 34.200215 -118.358844 258 720ft 0kts
08-Nov-19 18:41 34.200215 -118.358844 258 720ft 0kts
08-Nov-19 18:42 34.200215 -118.358844 258 720ft 0kts
08-Nov-19 18:43 34.200215 -118.358844 258 720ft 0kts
08-Nov-19 18:44 34.200215 -118.358844 258 720ft 0kts
08-Nov-19 18:45 34.200876 -118.358791 349 723ft 12kts
08-Nov-19 18:46 34.204288 -118.359396 347 735ft 16kts
08-Nov-19 18:47 34.209743 -118.360903 346 760ft 11kts
08-Nov-19 18:48 34.211510 -118.361221 27 766ft 0kts
08-Nov-19 18:49 34.211510 -118.361221 27 766ft 0kts
08-Nov-19 18:50 34.211554 -118.360263 167 764ft 9kts
08-Nov-19 18:51 34.184695 -118.362467 227 1656ft 153kts
08-Nov-19 18:52 34.152665 -118.404187 225 3915ft 191kts
08-Nov-19 18:53 34.108128 -118.461777 234 3982ft 255kts
08-Nov-19 18:54 34.136428 -118.508202 352 5850ft 188kts
08-Nov-19 18:55 34.188349 -118.520494 352 7529ft 196kts
08-Nov-19 18:56 34.239938 -118.533055 352 8992ft 209kts
08-Nov-19 18:57 34.281665 -118.496203 103 8995ft 262kts
08-Nov-19 18:59 34.251517 -118.411722 112 8995ft 278kts
08-Nov-19 19:00 34.219218 -118.326269 126 8988ft 281kts
08-Nov-19 19:01 34.157645 -118.270041 152 8991ft 285kts
08-Nov-19 19:02 34.086274 -118.229110 152 8991ft 284kts
08-Nov-19 19:03 34.015153 -118.188093 152 8984ft 281kts
08-Nov-19 19:04 33.945099 -118.147717 153 8973ft 278kts
08-Nov-19 19:05 33.878826 -118.109704 151 8960ft 229kts
08-Nov-19 19:06 33.825269 -118.078898 151 8965ft 205kts
08-Nov-19 19:07 33.777761 -118.045484 120 8973ft 188kts
08-Nov-19 19:08 33.749861 -117.996864 120 8971ft 174kts
08-Nov-19 19:09 33.722705 -117.949371 124 8970ft 163kts
08-Nov-19 19:10 33.697174 -117.905340 124 8971ft 161kts
08-Nov-19 19:11 33.671653 -117.861282 123 8972ft 161kts
08-Nov-19 19:12 33.645890 -117.816843 123 8972ft 161kts
08-Nov-19 19:13 33.611475 -117.787966 181 8505ft 179kts
08-Nov-19 19:14 33.562050 -117.793493 193 7297ft 176kts
08-Nov-19 19:15 33.560416 -117.846005 291 5941ft 184kts
08-Nov-19 19:16 33.580360 -117.900641 291 4975ft 171kts
08-Nov-19 19:16 33.596531 -117.943584 291 4972ft 168kts
08-Nov-19 19:18 33.642335 -117.951875 21 4973ft 172kts
08-Nov-19 19:19 33.688845 -117.930937 21 4027ft 178kts
08-Nov-19 19:19 33.726074 -117.913086 25 3147ft 153kts
08-Nov-19 19:20 33.729764 -117.873805 138 2146ft 119kts
08-Nov-19 19:22 33.696577 -117.859786 185 582ft 106kts
08-Nov-19 19:22 33.675837 -117.868733 208 59ft 76kts
08-Nov-19 19:23 33.669354 -117.871836 148 59ft 0kts

Navigation Log

Ident Type
Flight plan parsing failed, navigation log unavailable